Time;durP1;ratioP1;P1;durP2;ratioP2;P2;SDS_P1;SDS_P2;PMS_P1;PMS_P2;Temp;Humidity;BMP_temperature;BMP_pressure;BME280_temperature;BME280_humidity;BME280_pressure;Samples;Min_cycle;Max_cycle;Signal;HPM_P1;HPM_P2
2022/10/25 00:01:56;;;;;;;41.92;18.67;;;;;;;11.66;85.97;99281.80;1666746;86;21607;-80
2022/10/25 00:04:23;;;;;;;48.92;20.08;;;;;;;11.67;85.46;99286.09;1663179;86;21035;-80
2022/10/25 00:06:51;;;;;;;42.65;18.80;;;;;;;11.67;85.80;99284.80;1664958;85;21054;-80
2022/10/25 00:09:18;;;;;;;41.20;18.62;;;;;;;11.69;85.89;99289.06;1663175;86;21082;-79
2022/10/25 00:11:46;;;;;;;38.25;19.12;;;;;;;11.70;85.56;99287.33;1664037;86;22147;-79
2022/10/25 00:14:17;;;;;;;42.27;17.35;;;;;;;11.68;85.51;99296.48;1664911;86;21090;-78
2022/10/25 00:16:43;;;;;;;48.33;17.48;;;;;;;11.69;85.31;99301.23;1660707;86;21563;-79
2022/10/25 00:19:13;;;;;;;39.25;17.35;;;;;;;11.67;85.26;99294.75;1665749;86;21121;-81
2022/10/25 00:21:40;;;;;;;35.10;17.15;;;;;;;11.63;84.86;99297.48;1657774;86;21058;-81
2022/10/25 00:24:11;;;;;;;34.60;17.57;;;;;;;11.59;84.33;99298.02;1654562;86;21011;-80
2022/10/25 00:26:40;;;;;;;41.10;16.85;;;;;;;11.56;85.01;99296.80;1665142;86;21004;-80
2022/10/25 00:29:09;;;;;;;38.98;17.80;;;;;;;11.58;85.03;99293.72;1664490;86;21055;-80
2022/10/25 00:31:38;;;;;;;35.95;16.85;;;;;;;11.62;85.50;99284.92;1665018;86;21017;-80
2022/10/25 00:34:05;;;;;;;37.45;16.77;;;;;;;11.68;85.57;99287.82;1662674;86;21325;-80
2022/10/25 00:36:33;;;;;;;34.70;16.40;;;;;;;11.72;85.31;99282.48;1664385;86;21637;-81
2022/10/25 00:39:01;;;;;;;36.63;16.73;;;;;;;11.72;85.14;99278.57;1668079;86;21042;-80
2022/10/25 00:41:32;;;;;;;35.40;15.80;;;;;;;11.75;85.17;99278.92;1664596;86;21099;-79
2022/10/25 00:44:41;;;;;;;37.28;16.77;;;;;;;11.78;85.04;99274.08;1652313;86;21023;-79
2022/10/25 00:47:17;;;;;;;37.80;15.78;;;;;;;11.79;84.93;99279.70;1644794;86;21080;-80
2022/10/25 00:50:02;;;;;;;35.98;16.52;;;;;;;11.78;84.69;99273.65;1627408;87;21034;-79
2022/10/25 00:52:34;;;;;;;29.52;15.68;;;;;;;11.78;84.60;99268.86;1622549;87;21060;-79
2022/10/25 00:55:04;;;;;;;39.75;16.93;;;;;;;11.75;84.35;99270.66;1625679;87;21050;-79
2022/10/25 00:57:40;;;;;;;31.27;15.05;;;;;;;11.69;83.91;99264.77;1625674;88;21062;-79
2022/10/25 01:00:10;;;;;;;38.33;16.70;;;;;;;11.62;83.71;99267.13;1610252;88;21126;-81
2022/10/25 01:02:38;;;;;;;42.38;17.32;;;;;;;11.55;83.77;99269.04;1663694;85;21699;-79
2022/10/25 01:05:08;;;;;;;37.78;17.35;;;;;;;11.51;83.70;99272.62;1668845;86;21043;-79
2022/10/25 01:07:36;;;;;;;36.83;17.32;;;;;;;11.46;83.81;99268.84;1657111;86;21044;-79
2022/10/25 01:10:04;;;;;;;40.40;17.15;;;;;;;11.44;83.68;99269.76;1655845;86;21145;-80
2022/10/25 01:12:33;;;;;;;30.88;15.53;;;;;;;11.42;83.75;99270.25;1660908;85;21050;-79
2022/10/25 01:15:02;;;;;;;30.65;14.87;;;;;;;11.36;83.65;99263.48;1668394;86;21028;-79
2022/10/25 01:17:52;;;;;;;29.82;13.78;;;;;;;11.38;84.31;99263.41;1674165;85;21070;-78
2022/10/25 01:21:09;;;;;;;35.05;14.75;;;;;;;11.39;83.94;99263.84;1668852;86;22149;-79
2022/10/25 01:24:03;;;;;;;30.02;13.90;;;;;;;11.30;83.92;99257.97;1658101;86;21053;-78
2022/10/25 01:27:09;;;;;;;38.98;15.65;;;;;;;11.27;83.80;99263.70;1635754;85;21003;-78
2022/10/25 01:30:08;;;;;;;29.75;14.45;;;;;;;11.16;84.21;99260.08;1655322;86;21606;-78
2022/10/25 01:33:21;;;;;;;38.02;15.28;;;;;;;11.17;84.75;99252.66;1669036;86;21058;-81
2022/10/25 01:36:02;;;;;;;33.40;15.63;;;;;;;11.24;85.30;99255.95;1665912;86;21082;-79
2022/10/25 01:39:04;;;;;;;37.50;17.30;;;;;;;11.29;85.81;99248.44;1658440;86;21540;-79
2022/10/25 01:42:02;;;;;;;37.15;16.52;;;;;;;11.29;84.75;99252.80;1618352;89;22231;-79
2022/10/25 01:44:56;;;;;;;47.35;16.73;;;;;;;11.30;84.84;99250.59;1623636;87;21073;-80
2022/10/25 01:47:29;;;;;;;35.13;15.10;;;;;;;11.29;84.96;99251.50;1644449;86;21090;-79
2022/10/25 01:50:02;;;;;;;31.40;14.55;;;;;;;11.24;84.44;99254.23;1658254;86;21062;-79
2022/10/25 01:52:30;;;;;;;31.40;14.33;;;;;;;11.22;84.64;99248.63;1669519;86;21091;-80
2022/10/25 01:54:57;;;;;;;32.28;14.63;;;;;;;11.25;84.77;99250.72;1669167;85;21523;-79
2022/10/25 01:58:08;;;;;;;30.97;14.45;;;;;;;11.27;84.70;99242.88;1672552;85;21103;-81
2022/10/25 02:01:01;;;;;;;32.05;15.48;;;;;;;11.28;84.65;99247.17;1673508;85;21140;-80
2022/10/25 02:04:05;;;;;;;32.78;13.98;;;;;;;11.23;84.35;99244.70;1658248;86;21025;-79
2022/10/25 02:06:50;;;;;;;33.83;15.10;;;;;;;11.26;84.65;99239.43;1619155;88;21045;-79
2022/10/25 02:09:48;;;;;;;27.25;14.20;;;;;;;11.24;84.19;99237.31;1616215;89;21061;-79
2022/10/25 02:12:24;;;;;;;33.88;15.15;;;;;;;11.21;84.78;99233.47;1655451;85;21094;-79
2022/10/25 02:15:03;;;;;;;33.75;14.98;;;;;;;11.01;84.52;99206.66;1671905;85;21010;-79
2022/10/25 02:17:34;;;;;;;33.33;14.43;;;;;;;11.18;84.83;99233.98;1658315;86;21095;-80
2022/10/25 02:20:04;;;;;;;31.97;14.95;;;;;;;11.17;84.89;99230.55;1673753;85;21945;-81
2022/10/25 02:22:34;;;;;;;32.58;14.30;;;;;;;11.19;84.62;99239.62;1656962;85;21546;-80
2022/10/25 02:25:02;;;;;;;34.55;13.83;;;;;;;11.14;84.23;99231.91;1659169;86;21076;-80
2022/10/25 02:27:31;;;;;;;31.23;15.30;;;;;;;11.10;84.38;99230.28;1672880;85;21062;-81
2022/10/25 02:29:59;;;;;;;32.10;14.45;;;;;;;11.06;84.52;99219.12;1669589;86;21031;-79
2022/10/25 02:32:27;;;;;;;35.43;14.53;;;;;;;11.03;84.41;99218.33;1658520;86;21082;-80
2022/10/25 02:34:55;;;;;;;33.18;14.25;;;;;;;11.05;84.83;99219.99;1678242;85;21047;-79
2022/10/25 02:37:22;;;;;;;32.20;14.55;;;;;;;11.03;84.66;99222.23;1669557;85;21050;-78
2022/10/25 02:39:50;;;;;;;35.68;14.95;;;;;;;11.01;84.79;99217.52;1658510;86;21119;-80
2022/10/25 02:42:18;;;;;;;31.00;13.90;;;;;;;11.00;84.98;99216.67;1669670;85;21102;-82
2022/10/25 02:44:46;;;;;;;30.88;14.53;;;;;;;11.03;84.71;99209.23;1658160;86;21074;-83
2022/10/25 02:47:13;;;;;;;30.82;13.68;;;;;;;11.04;84.71;99208.31;1669359;85;21551;-82
2022/10/25 02:49:41;;;;;;;32.85;15.88;;;;;;;11.06;84.42;99202.63;1671145;85;21053;-84
2022/10/25 02:52:09;;;;;;;395.25;136.50;;;;;;;11.07;84.33;99201.30;1658150;86;21048;-83
2022/10/25 02:54:37;;;;;;;118.75;54.35;;;;;;;11.05;83.96;99203.54;1617985;87;21580;-81
2022/10/25 02:57:04;;;;;;;102.58;42.38;;;;;;;10.97;83.67;99198.98;1665486;86;21128;-79
2022/10/25 02:59:32;;;;;;;169.62;82.00;;;;;;;10.95;84.30;99195.95;1661151;86;21083;-83
2022/10/25 03:02:00;;;;;;;47.23;21.73;;;;;;;10.97;84.24;99200.28;1656898;85;21551;-84
2022/10/25 03:04:27;;;;;;;40.55;18.42;;;;;;;10.97;83.59;99204.18;1666001;85;21558;-81
2022/10/25 03:06:56;;;;;;;34.30;18.60;;;;;;;10.91;84.22;99196.08;1675346;85;21040;-84
2022/10/25 03:09:24;;;;;;;39.42;19.37;;;;;;;10.82;84.03;99188.03;1671903;85;21023;-79
2022/10/25 03:11:51;;;;;;;41.68;18.90;;;;;;;10.72;83.45;99191.34;1658382;86;21056;-81
2022/10/25 03:14:19;;;;;;;37.45;18.65;;;;;;;10.70;84.56;99184.44;1669789;85;21043;-79
2022/10/25 03:16:47;;;;;;;38.83;18.73;;;;;;;10.72;84.54;99180.05;1665094;86;21069;-80
2022/10/25 03:19:15;;;;;;;37.00;18.12;;;;;;;10.71;83.96;99169.27;1663897;85;21013;-79
2022/10/25 03:21:42;;;;;;;40.35;16.62;;;;;;;10.69;84.38;99168.45;1669814;85;21114;-79
2022/10/25 03:24:09;;;;;;;41.77;16.15;;;;;;;10.71;84.47;99164.06;1669517;85;21038;-80
2022/10/25 03:26:37;;;;;;;31.33;14.78;;;;;;;10.68;84.25;99155.91;1656730;86;21064;-79
2022/10/25 03:29:05;;;;;;;30.85;13.53;;;;;;;10.66;83.95;99155.51;1663190;86;21085;-79
2022/10/25 03:31:33;;;;;;;29.48;14.60;;;;;;;10.56;83.80;99152.27;1659798;86;21058;-80
2022/10/25 03:34:01;;;;;;;31.40;15.58;;;;;;;10.52;83.42;99151.52;1662618;86;21059;-80
2022/10/25 03:36:28;;;;;;;29.72;15.20;;;;;;;10.45;84.03;99149.09;1670888;85;21079;-80
2022/10/25 03:38:56;;;;;;;41.28;18.10;;;;;;;10.46;84.46;99155.53;1669928;85;21999;-80
2022/10/25 03:41:23;;;;;;;82.12;40.73;;;;;;;10.46;84.64;99151.64;1666502;85;21109;-79
2022/10/25 03:43:51;;;;;;;39.10;21.07;;;;;;;10.44;84.49;99159.91;1638865;86;21055;-79
2022/10/25 03:46:19;;;;;;;42.75;19.67;;;;;;;10.43;84.35;99150.42;1668445;86;21035;-79
2022/10/25 03:48:46;;;;;;;43.15;17.70;;;;;;;10.42;84.73;99163.00;1668603;86;21027;-80
2022/10/25 03:51:14;;;;;;;37.85;17.20;;;;;;;10.43;84.65;99163.88;1657550;86;21079;-79
2022/10/25 03:53:41;;;;;;;41.40;17.70;;;;;;;10.44;84.87;99153.88;1668311;86;21574;-80
2022/10/25 03:56:09;;;;;;;38.02;17.32;;;;;;;10.43;84.24;99154.33;1642794;86;21036;-80
2022/10/25 03:58:36;;;;;;;36.50;16.73;;;;;;;10.40;84.56;99145.28;1664617;86;21126;-79
2022/10/25 04:01:08;;;;;;;38.73;17.27;;;;;;;10.43;84.74;99140.48;1667389;85;21531;-80
2022/10/25 04:03:36;;;;;;;44.50;16.95;;;;;;;10.44;84.45;99143.02;1669359;86;21642;-80
2022/10/25 04:06:05;;;;;;;50.17;19.55;;;;;;;10.46;84.24;99133.89;1654906;85;20978;-80
2022/10/25 04:08:33;;;;;;;48.70;19.50;;;;;;;10.43;83.76;99156.92;1658238;86;21019;-80
2022/10/25 04:11:01;;;;;;;50.00;19.05;;;;;;;10.36;83.65;99155.34;1669645;85;21084;-81
2022/10/25 04:13:28;;;;;;;45.63;19.02;;;;;;;10.32;83.80;99161.05;1671116;85;21098;-80
2022/10/25 04:15:56;;;;;;;48.15;20.17;;;;;;;10.30;84.00;99158.09;1658077;86;21543;-79
2022/10/25 04:18:24;;;;;;;43.92;18.80;;;;;;;10.32;84.53;99153.70;1617679;87;21045;-79
2022/10/25 04:20:51;;;;;;;38.53;18.32;;;;;;;10.35;84.66;99152.36;1632530;87;21144;-80
2022/10/25 04:23:19;;;;;;;44.03;20.40;;;;;;;10.40;84.83;99145.73;1616501;87;21339;-80
2022/10/25 04:25:46;;;;;;;46.88;21.45;;;;;;;10.43;84.52;99154.33;1642383;86;21046;-79
2022/10/25 04:28:14;;;;;;;54.27;20.08;;;;;;;10.40;84.18;99155.68;1642396;86;21479;-79
2022/10/25 04:30:42;;;;;;;62.15;20.15;;;;;;;10.41;84.21;99154.80;1624560;88;20998;-80
2022/10/25 04:33:10;;;;;;;63.00;21.25;;;;;;;10.40;84.22;99160.88;1663839;85;22013;-79
2022/10/25 04:35:37;;;;;;;53.92;19.45;;;;;;;10.44;84.32;99159.91;1662185;85;21023;-81
2022/10/25 04:38:04;;;;;;;51.90;20.52;;;;;;;10.45;84.32;99160.80;1665565;85;20991;-81
2022/10/25 04:40:32;;;;;;;44.95;18.95;;;;;;;10.44;84.36;99149.52;1646012;86;21166;-79
2022/10/25 04:43:01;;;;;;;50.58;20.37;;;;;;;10.43;84.35;99152.18;1673766;85;21038;-80
2022/10/25 04:45:28;;;;;;;48.42;21.95;;;;;;;10.39;84.35;99142.30;1669384;86;21011;-80
2022/10/25 04:47:56;;;;;;;66.95;23.20;;;;;;;10.43;85.06;99142.63;1674921;85;21046;-80
2022/10/25 04:50:24;;;;;;;81.55;25.65;;;;;;;10.48;85.08;99148.55;1658565;86;21066;-79
2022/10/25 04:52:51;;;;;;;95.45;31.17;;;;;;;10.53;85.12;99141.97;1661902;86;21393;-80
2022/10/25 04:55:19;;;;;;;134.35;38.33;;;;;;;10.55;84.70;99144.08;1670020;86;21059;-81
2022/10/25 04:57:47;;;;;;;140.80;42.53;;;;;;;10.50;84.53;99139.00;1633795;86;21678;-80
2022/10/25 05:00:14;;;;;;;124.65;41.48;;;;;;;10.52;84.14;99145.44;1668647;85;21105;-81
2022/10/25 05:02:42;;;;;;;127.50;38.28;;;;;;;10.50;84.32;99137.70;1649999;85;21090;-80
2022/10/25 05:05:10;;;;;;;114.85;37.98;;;;;;;10.52;84.49;99141.55;1667122;85;21169;-79
2022/10/25 05:07:38;;;;;;;103.05;35.08;;;;;;;10.53;84.37;99153.20;1666637;85;21082;-80
2022/10/25 05:10:06;;;;;;;62.93;26.00;;;;;;;10.55;84.70;99143.62;1649633;86;21147;-79
2022/10/25 05:12:34;;;;;;;66.55;21.68;;;;;;;10.57;84.51;99150.55;1666105;86;21115;-80
2022/10/25 05:15:02;;;;;;;42.40;18.10;;;;;;;10.54;84.18;99143.23;1664357;85;21095;-79
2022/10/25 05:17:30;;;;;;;36.93;17.35;;;;;;;10.56;84.73;99145.77;1657608;85;21068;-80
2022/10/25 05:19:57;;;;;;;35.80;16.77;;;;;;;10.58;84.67;99143.98;1669655;85;21095;-81
2022/10/25 05:22:28;;;;;;;31.35;15.78;;;;;;;10.57;84.69;99154.45;1656413;85;21086;-79
2022/10/25 05:24:55;;;;;;;35.48;15.93;;;;;;;10.56;84.54;99158.77;1663153;85;21095;-80
2022/10/25 05:27:23;;;;;;;27.27;14.30;;;;;;;10.53;84.58;99159.70;1667735;85;21067;-80
2022/10/25 05:29:51;;;;;;;27.32;14.18;;;;;;;10.54;85.18;99163.16;1665695;85;21122;-79
2022/10/25 05:32:18;;;;;;;31.40;16.85;;;;;;;10.55;85.05;99162.28;1668944;86;21022;-80
2022/10/25 05:34:46;;;;;;;30.25;15.90;;;;;;;10.57;85.42;99159.66;1665094;85;21054;-80
2022/10/25 05:37:13;;;;;;;36.23;16.27;;;;;;;10.61;85.68;99175.12;1671600;85;21019;-80
2022/10/25 05:39:41;;;;;;;36.88;15.80;;;;;;;10.65;85.50;99177.22;1671462;85;21023;-79
2022/10/25 05:42:09;;;;;;;28.65;15.68;;;;;;;10.67;85.47;99181.93;1669853;85;22249;-81
2022/10/25 05:44:36;;;;;;;31.00;15.88;;;;;;;10.66;85.28;99182.81;1669608;85;21100;-80
2022/10/25 05:47:04;;;;;;;36.80;15.78;;;;;;;10.64;85.31;99194.98;1655274;85;21036;-81
2022/10/25 05:49:38;;;;;;;32.93;16.73;;;;;;;10.67;85.67;99188.44;1668497;85;21491;-81
2022/10/25 05:52:01;;;;;;;51.10;17.52;;;;;;;10.74;85.49;99189.55;1666603;85;21667;-81
2022/10/25 05:54:29;;;;;;;49.55;19.62;;;;;;;10.75;85.58;99183.44;1670800;85;21365;-82
2022/10/25 05:56:57;;;;;;;49.08;18.57;;;;;;;10.79;86.64;99185.53;1663475;86;21023;-80
2022/10/25 05:59:25;;;;;;;44.45;18.15;;;;;;;10.78;86.70;99187.70;1670063;85;21217;-81
2022/10/25 06:01:52;;;;;;;50.70;17.70;;;;;;;10.78;85.78;99187.70;1652912;85;21070;-82
2022/10/25 06:04:20;;;;;;;41.42;17.77;;;;;;;10.75;87.62;99190.39;1654824;86;21105;-80
2022/10/25 06:06:50;;;;;;;37.88;17.35;;;;;;;10.78;87.73;99194.20;1665740;86;21054;-80
2022/10/25 06:09:18;;;;;;;42.03;17.87;;;;;;;10.76;87.99;99192.09;1675507;85;21073;-82
2022/10/25 06:11:45;;;;;;;46.05;17.02;;;;;;;10.75;88.02;99201.64;1676775;85;21912;-81
2022/10/25 06:14:13;;;;;;;48.95;18.98;;;;;;;10.77;87.31;99205.52;1671152;85;21175;-82
2022/10/25 06:16:41;;;;;;;46.37;18.70;;;;;;;10.75;87.42;99212.50;1658322;86;21039;-81
2022/10/25 06:19:11;;;;;;;50.20;19.52;;;;;;;10.74;90.11;99199.08;1670437;85;21104;-82
2022/10/25 06:21:38;;;;;;;52.20;19.32;;;;;;;10.78;90.67;99206.36;1677092;84;21046;-81
2022/10/25 06:24:08;;;;;;;46.77;19.85;;;;;;;10.85;89.63;99216.59;1666488;85;21018;-83
2022/10/25 06:26:36;;;;;;;53.87;19.82;;;;;;;10.90;88.96;99206.94;1675951;86;21046;-81
2022/10/25 06:29:04;;;;;;;42.85;17.52;;;;;;;10.97;91.51;99200.28;1671217;85;21086;-82
2022/10/25 06:31:33;;;;;;;41.18;16.27;;;;;;;11.05;89.89;99213.48;1638216;86;21127;-80
2022/10/25 06:34:02;;;;;;;34.75;15.03;;;;;;;11.10;89.74;99209.46;1675518;85;21010;-80
2022/10/25 06:36:30;;;;;;;24.55;12.05;;;;;;;11.14;90.28;99196.36;1673685;85;21063;-81
2022/10/25 06:38:59;;;;;;;24.72;12.15;;;;;;;11.15;90.83;99197.20;1663767;86;22238;-80
2022/10/25 06:41:30;;;;;;;22.20;11.93;;;;;;;11.18;91.42;99201.04;1668514;85;21063;-81
2022/10/25 06:43:59;;;;;;;25.15;10.90;;;;;;;11.19;90.70;99204.48;1674259;85;21299;-81
2022/10/25 06:46:31;;;;;;;22.65;11.12;;;;;;;11.19;90.41;99205.79;1658296;85;21078;-81
2022/10/25 06:49:01;;;;;;;27.90;13.05;;;;;;;11.19;91.36;99209.69;1670677;85;21109;-80
2022/10/25 06:51:29;;;;;;;30.70;13.78;;;;;;;11.22;91.57;99201.37;1667015;85;21059;-81
2022/10/25 06:54:00;;;;;;;29.72;13.03;;;;;;;11.29;90.08;99208.09;1676313;85;21080;-80
2022/10/25 06:56:30;;;;;;;24.92;12.93;;;;;;;11.31;91.31;99195.90;1663810;86;21069;-80
2022/10/25 06:58:58;;;;;;;34.20;14.40;;;;;;;11.36;90.78;99197.10;1675740;85;21028;-81
2022/10/25 07:01:25;;;;;;;32.75;13.93;;;;;;;11.44;90.07;99204.67;1665201;86;21063;-81
2022/10/25 07:03:54;;;;;;;31.48;13.75;;;;;;;11.52;90.39;99196.23;1672665;85;21058;-81
2022/10/25 07:06:25;;;;;;;38.85;15.30;;;;;;;11.57;89.95;99185.69;1667286;85;21112;-80
2022/10/25 07:08:58;;;;;;;37.73;15.28;;;;;;;11.63;90.16;99181.61;1670344;86;21046;-81
2022/10/25 07:11:29;;;;;;;36.08;14.47;;;;;;;11.69;90.89;99181.44;1656139;86;21091;-80
2022/10/25 07:13:58;;;;;;;37.63;15.03;;;;;;;11.75;90.65;99182.10;1665118;86;21055;-81
2022/10/25 07:16:27;;;;;;;38.98;16.32;;;;;;;11.80;89.92;99181.99;1654546;86;21060;-82
2022/10/25 07:19:00;;;;;;;30.57;12.35;;;;;;;11.84;90.28;99179.70;1663431;84;21571;-79
2022/10/25 07:21:30;;;;;;;18.60;10.03;;;;;;;11.94;90.25;99169.91;1671575;85;21059;-81
2022/10/25 07:23:58;;;;;;;18.60;8.73;;;;;;;11.98;90.03;99167.61;1648597;85;21948;-80
2022/10/25 07:26:32;;;;;;;25.97;9.25;;;;;;;12.10;89.34;99166.39;1665044;85;21129;-80
2022/10/25 07:29:02;;;;;;;22.73;9.53;;;;;;;12.08;89.87;99163.83;1670502;86;21011;-81
2022/10/25 07:31:34;;;;;;;18.85;8.68;;;;;;;12.18;89.49;99162.25;1668418;85;21056;-81
2022/10/25 07:34:04;;;;;;;22.98;9.33;;;;;;;12.29;89.17;99163.59;1665432;86;21559;-80
2022/10/25 07:36:33;;;;;;;19.23;8.30;;;;;;;12.28;89.85;99150.64;1650168;86;21117;-80
2022/10/25 07:39:01;;;;;;;18.02;8.68;;;;;;;12.36;89.76;99159.07;1662444;85;21055;-80
2022/10/25 07:41:29;;;;;;;20.17;9.18;;;;;;;12.48;89.43;99148.25;1657258;85;21106;-79
2022/10/25 07:43:57;;;;;;;22.60;10.38;;;;;;;12.52;89.82;99152.46;1668055;85;21039;-80
2022/10/25 07:46:25;;;;;;;25.08;9.38;;;;;;;12.61;89.73;99147.84;1668117;86;21607;-79
2022/10/25 07:48:53;;;;;;;22.25;9.03;;;;;;;12.68;89.81;99145.45;1670240;85;21042;-80
2022/10/25 07:51:21;;;;;;;23.02;8.80;;;;;;;12.83;89.13;99143.64;1669359;86;21873;-79
2022/10/25 07:53:49;;;;;;;20.97;8.95;;;;;;;12.94;88.81;99141.97;1658313;86;21031;-80
2022/10/25 07:56:20;;;;;;;28.05;9.35;;;;;;;13.07;88.62;99134.55;1599123;89;21151;-79
2022/10/25 07:58:48;;;;;;;19.12;8.95;;;;;;;13.19;88.03;99132.84;1659299;85;21033;-79
2022/10/25 08:01:20;;;;;;;25.37;9.60;;;;;;;13.30;87.82;99134.64;1657206;85;21061;-79
2022/10/25 08:03:50;;;;;;;21.55;8.70;;;;;;;13.36;87.54;99134.03;1658316;85;21068;-81
2022/10/25 08:06:23;;;;;;;23.45;9.18;;;;;;;13.47;87.41;99144.95;1655793;85;21036;-82
2022/10/25 08:08:57;;;;;;;27.85;9.05;;;;;;;13.52;86.84;99141.70;1617475;86;21052;-80
2022/10/25 08:11:25;;;;;;;27.22;9.35;;;;;;;13.53;86.65;99132.98;1659388;85;21162;-89
2022/10/25 08:13:53;;;;;;;20.97;9.05;;;;;;;13.60;86.62;99137.52;1655883;85;21080;-84
2022/10/25 08:16:20;;;;;;;24.27;8.45;;;;;;;13.68;86.39;99133.69;1655424;85;21039;-82
2022/10/25 08:18:49;;;;;;;26.40;9.38;;;;;;;13.79;86.06;99124.63;1658777;85;21100;-81
2022/10/25 08:21:16;;;;;;;21.95;9.53;;;;;;;13.95;85.82;99124.87;1657902;86;21048;-83
2022/10/25 08:23:44;;;;;;;28.17;8.78;;;;;;;14.17;85.50;99125.76;1655857;85;21290;-81
2022/10/25 08:26:12;;;;;;;18.23;8.08;;;;;;;14.31;84.74;99121.29;1654163;86;21087;-82
2022/10/25 08:28:39;;;;;;;19.70;8.08;;;;;;;14.55;84.27;99128.60;1654315;86;21090;-81
2022/10/25 08:31:07;;;;;;;19.45;8.83;;;;;;;14.68;83.56;99114.14;1651664;85;21051;-83
2022/10/25 08:33:35;;;;;;;20.52;8.75;;;;;;;14.89;83.04;99119.38;1645231;86;21055;-83
2022/10/25 08:36:03;;;;;;;25.52;7.83;;;;;;;14.99;82.38;99114.14;1659195;85;21087;-82
2022/10/25 08:38:31;;;;;;;19.95;7.58;;;;;;;15.08;81.84;99107.64;1656905;85;21645;-81
2022/10/25 08:41:18;;;;;;;23.57;9.53;;;;;;;15.18;82.24;99094.57;1670093;84;21015;-84
2022/10/25 08:44:16;;;;;;;20.85;8.60;;;;;;;15.35;81.17;99111.30;1637597;87;21011;-82
2022/10/25 08:47:04;;;;;;;21.33;7.50;;;;;;;15.55;81.43;99109.94;1653012;86;21080;-80
2022/10/25 08:49:54;;;;;;;23.47;7.92;;;;;;;15.71;79.78;99107.00;1636114;87;21015;-80
2022/10/25 08:52:46;;;;;;;17.10;7.60;;;;;;;15.88;79.35;99106.73;1657722;85;21147;-80
2022/10/25 08:55:22;;;;;;;20.80;7.33;;;;;;;16.05;78.88;99117.73;1659689;85;21008;-80
2022/10/25 08:57:51;;;;;;;23.45;8.63;;;;;;;16.23;76.93;99118.16;1657042;86;21039;-83
2022/10/25 09:00:22;;;;;;;19.57;7.90;;;;;;;16.37;76.38;99124.05;1661136;86;21208;-82
2022/10/25 09:02:59;;;;;;;19.07;8.30;;;;;;;16.52;76.09;99122.48;1661986;85;21044;-80
2022/10/25 09:05:56;;;;;;;20.32;7.55;;;;;;;16.60;75.68;99119.48;1663977;86;21031;-82
2022/10/25 09:08:37;;;;;;;23.67;8.03;;;;;;;16.84;76.05;99131.41;1661668;86;21062;-79
2022/10/25 09:11:39;;;;;;;27.22;8.28;;;;;;;17.05;74.00;99123.35;1647083;85;20999;-80
2022/10/25 09:14:27;;;;;;;16.42;6.60;;;;;;;17.19;74.26;99122.20;1664498;86;21086;-81
2022/10/25 09:17:24;;;;;;;22.93;7.65;;;;;;;17.35;73.59;99151.59;1649796;85;21038;-79
2022/10/25 09:20:12;;;;;;;16.12;6.65;;;;;;;17.49;73.40;99137.30;1641063;85;21618;-80
2022/10/25 09:22:50;;;;;;;21.87;7.55;;;;;;;17.64;72.32;99145.66;1654256;85;21057;-80
2022/10/25 09:25:24;;;;;;;21.73;6.78;;;;;;;17.86;72.16;99134.02;1668758;85;21026;-80
2022/10/25 09:28:03;;;;;;;20.40;6.92;;;;;;;18.12;71.63;99129.95;1640598;85;21069;-80
2022/10/25 09:30:38;;;;;;;18.70;7.17;;;;;;;18.28;70.81;99137.84;1664573;84;22011;-81
2022/10/25 09:33:17;;;;;;;18.65;6.45;;;;;;;18.53;71.63;99133.37;1664204;85;22243;-80
2022/10/25 09:35:50;;;;;;;18.42;6.80;;;;;;;18.73;67.50;99133.53;1664031;85;21138;-80
2022/10/25 09:38:50;;;;;;;;;;;;;;;18.96;70.42;99134.00;1671284;85;21567;-79
2022/10/25 09:41:35;;;;;;;25.70;7.10;;;;;;;19.17;68.63;99134.04;1666085;85;20145;-80
2022/10/25 09:44:33;;;;;;;24.00;6.10;;;;;;;19.26;67.22;99128.70;1669542;85;21095;-80
2022/10/25 09:47:19;;;;;;;22.45;6.90;;;;;;;19.42;67.86;99124.67;1647016;85;21123;-80
2022/10/25 09:49:57;;;;;;;18.70;6.92;;;;;;;19.57;66.52;99125.02;1666247;85;21055;-82
2022/10/25 09:52:42;;;;;;;21.97;7.17;;;;;;;19.70;67.37;99126.92;1657447;85;21578;-82
2022/10/25 09:55:43;;;;;;;26.85;8.53;;;;;;;19.79;67.12;99132.96;1667755;85;21095;-82
2022/10/25 09:58:39;;;;;;;26.97;7.53;;;;;;;19.84;67.18;99129.58;1658887;85;21022;-81
2022/10/25 10:01:17;;;;;;;24.52;7.00;;;;;;;19.85;67.04;99127.30;1665226;85;21076;-80
2022/10/25 10:03:45;;;;;;;19.90;6.67;;;;;;;19.85;65.98;99124.18;1662280;86;21082;-81
2022/10/25 10:06:32;;;;;;;17.05;6.87;;;;;;;19.81;66.38;99120.52;1637395;87;21137;-80
2022/10/25 10:09:07;;;;;;;20.17;7.12;;;;;;;19.73;65.79;99127.59;1625811;86;21101;-81
2022/10/25 10:11:35;;;;;;;21.52;7.37;;;;;;;19.67;65.96;99127.47;1633101;87;22346;-80
2022/10/25 10:14:32;;;;;;;21.73;6.87;;;;;;;19.63;65.58;99133.88;1639078;87;22592;-80
2022/10/25 10:17:00;;;;;;;23.47;9.35;;;;;;;19.64;65.61;99135.58;1638605;87;21419;-81
2022/10/25 10:19:29;;;;;;;26.62;8.08;;;;;;;19.59;66.25;99134.17;1639679;87;21212;-80
2022/10/25 10:22:06;;;;;;;21.07;7.72;;;;;;;19.60;67.02;99137.20;1637551;87;21058;-82
2022/10/25 10:24:41;;;;;;;14.53;5.47;;;;;;;19.51;65.96;99133.80;1636474;86;21098;-82
2022/10/25 10:27:25;;;;;;;11.53;4.62;;;;;;;19.44;65.09;99130.22;1621597;86;21050;-82
2022/10/25 10:29:59;;;;;;;10.60;4.10;;;;;;;19.42;64.08;99130.78;1635202;86;21134;-81
2022/10/25 10:32:31;;;;;;;15.18;4.53;;;;;;;19.35;63.49;99138.67;1638300;86;21057;-80
2022/10/25 10:35:01;;;;;;;8.38;4.47;;;;;;;19.36;63.25;99143.47;1636211;86;21079;-80
2022/10/25 10:37:31;;;;;;;13.00;4.75;;;;;;;19.32;63.10;99147.23;1637437;87;21038;-81
2022/10/25 10:40:09;;;;;;;11.88;4.80;;;;;;;19.28;62.58;99140.84;1639747;87;21106;-83
2022/10/25 10:42:41;;;;;;;12.30;4.80;;;;;;;19.32;63.28;99136.69;1633812;86;21066;-82
2022/10/25 10:45:18;;;;;;;13.68;5.70;;;;;;;19.26;63.33;99132.18;1615124;89;21080;-81
2022/10/25 10:47:58;;;;;;;18.20;5.80;;;;;;;19.34;63.85;99133.48;1631795;86;21050;-80
2022/10/25 10:50:31;;;;;;;10.58;4.28;;;;;;;19.28;63.14;99138.20;1639830;87;21179;-80
2022/10/25 10:53:12;;;;;;;14.25;5.20;;;;;;;19.36;63.77;99140.38;1639774;87;21570;-82
2022/10/25 10:55:52;;;;;;;15.18;5.60;;;;;;;19.32;63.35;99143.27;1624722;87;21106;-81
2022/10/25 10:58:38;;;;;;;17.52;5.70;;;;;;;19.38;63.50;99139.82;1638501;86;22020;-80
2022/10/25 11:01:13;;;;;;;15.78;6.45;;;;;;;19.47;62.98;99141.88;1637979;87;21597;-80
2022/10/25 11:03:46;;;;;;;11.88;5.55;;;;;;;19.51;62.90;99129.84;1639057;86;21071;-82
2022/10/25 11:06:30;;;;;;;18.87;5.65;;;;;;;19.51;63.05;99133.80;1652602;86;21079;-82
2022/10/25 11:09:16;;;;;;;15.83;7.08;;;;;;;19.48;62.84;99137.47;1655117;86;21141;-82
2022/10/25 11:12:03;;;;;;;17.92;6.80;;;;;;;19.32;62.81;99137.56;1660648;86;22322;-82
2022/10/25 11:14:31;;;;;;;22.32;7.00;;;;;;;19.24;62.91;99147.24;1663681;86;21051;-83
2022/10/25 11:17:25;;;;;;;16.02;6.95;;;;;;;19.15;63.28;99144.30;1657011;86;21138;-80
2022/10/25 11:20:23;;;;;;;16.55;6.58;;;;;;;19.09;63.64;99158.69;1665142;85;21062;-82
2022/10/25 11:23:24;;;;;;;13.70;5.87;;;;;;;18.97;64.34;99169.95;1657223;86;21071;-85
2022/10/25 11:26:22;;;;;;;13.93;6.92;;;;;;;18.81;64.88;99178.73;1664043;85;21054;-83
2022/10/25 11:29:14;;;;;;;12.40;4.92;;;;;;;18.71;64.84;99184.59;1643144;86;21348;-84
2022/10/25 11:32:03;;;;;;;13.28;4.90;;;;;;;18.69;65.14;99196.53;1621439;85;21055;-82
2022/10/25 11:34:53;;;;;;;9.08;4.83;;;;;;;18.69;65.11;99208.38;1658715;86;21059;-83
2022/10/25 11:37:30;;;;;;;11.25;4.60;;;;;;;18.68;65.18;99212.81;1662082;86;21031;-82
2022/10/25 11:40:21;;;;;;;9.75;4.25;;;;;;;18.66;65.33;99203.27;1667707;86;21043;-80
2022/10/25 11:43:15;;;;;;;7.10;3.87;;;;;;;18.66;65.04;99206.78;1666141;85;21091;-81
2022/10/25 11:45:44;;;;;;;8.93;3.10;;;;;;;18.61;64.49;99190.38;1665415;86;21110;-83
2022/10/25 11:48:35;;;;;;;11.18;3.92;;;;;;;18.65;64.60;99196.33;1666860;85;21017;-84
2022/10/25 11:51:26;;;;;;;9.53;3.35;;;;;;;18.60;64.81;99183.43;1662753;85;21070;-81